Time;durP1;ratioP1;P1;durP2;ratioP2;P2;SDS_P1;SDS_P2;PMS_P1;PMS_P2;Temp;Humidity;BMP_temperature;BMP_pressure;BME280_temperature;BME280_humidity;BME280_pressure;Samples;Min_cycle;Max_cycle;Signal;HPM_P1;HPM_P2
2023/12/07 00:02:40;;;;;;;17.77;10.93;;;0.20;99.90;;;;;;7348802;32;20122;-57
2023/12/07 00:06:41;;;;;;;18.08;11.00;;;0.10;99.90;;;;;;7342062;32;20156;-57
2023/12/07 00:10:43;;;;;;;17.30;10.73;;;0.20;99.90;;;;;;7345174;32;20848;-57
2023/12/07 00:14:46;;;;;;;17.80;11.90;;;0.10;99.90;;;;;;7347180;32;20099;-56
2023/12/07 00:18:47;;;;;;;20.37;12.02;;;0.20;99.90;;;;;;7349385;32;20455;-58
2023/12/07 00:22:49;;;;;;;18.37;11.90;;;0.20;99.90;;;;;;7347679;32;20092;-57
2023/12/07 00:26:51;;;;;;;15.90;11.27;;;0.20;99.90;;;;;;7346331;32;20195;-57
2023/12/07 00:30:53;;;;;;;16.27;11.63;;;0.10;99.90;;;;;;7347357;32;20119;-55
2023/12/07 00:34:55;;;;;;;17.77;11.80;;;0.20;99.90;;;;;;7346445;32;20185;-55
2023/12/07 00:38:57;;;;;;;17.95;12.52;;;0.10;99.90;;;;;;7349709;32;20521;-55
2023/12/07 00:42:58;;;;;;;16.55;12.07;;;0.10;99.90;;;;;;7352107;32;20094;-56
2023/12/07 00:47:00;;;;;;;18.50;11.93;;;0.00;99.90;;;;;;7346327;32;20221;-56
2023/12/07 00:51:02;;;;;;;19.48;11.70;;;0.10;99.90;;;;;;7347723;32;20119;-56
2023/12/07 00:55:05;;;;;;;20.20;11.95;;;0.10;99.90;;;;;;7349368;32;20132;-56
2023/12/07 00:59:13;;;;;;;21.08;12.48;;;0.00;99.90;;;;;;7354582;32;20128;-57
2023/12/07 01:03:14;;;;;;;19.92;12.60;;;0.10;99.90;;;;;;7348094;32;20126;-55
2023/12/07 01:07:16;;;;;;;23.75;13.68;;;0.10;99.90;;;;;;7348742;32;20160;-56
2023/12/07 01:11:18;;;;;;;21.67;13.27;;;0.10;99.90;;;;;;7352445;32;20210;-56
2023/12/07 01:15:20;;;;;;;20.12;12.80;;;0.20;99.90;;;;;;7337449;32;20103;-56
2023/12/07 01:19:21;;;;;;;19.10;12.18;;;0.20;99.90;;;;;;7351288;32;20119;-55
2023/12/07 01:23:23;;;;;;;23.27;13.50;;;0.30;99.90;;;;;;7353230;32;20551;-55
2023/12/07 01:27:25;;;;;;;19.08;12.95;;;0.30;99.90;;;;;;7350988;32;20230;-56
2023/12/07 01:31:27;;;;;;;18.80;12.75;;;0.30;99.90;;;;;;7349662;32;20096;-56
2023/12/07 01:35:28;;;;;;;23.25;14.35;;;0.30;99.90;;;;;;7349379;32;20344;-56
2023/12/07 01:39:30;;;;;;;21.40;13.75;;;0.30;99.90;;;;;;7350095;32;20119;-56
2023/12/07 01:43:32;;;;;;;21.45;14.05;;;0.20;99.90;;;;;;7352302;32;20191;-56
2023/12/07 01:47:36;;;;;;;22.33;14.50;;;0.20;99.90;;;;;;7346742;32;20152;-57
2023/12/07 01:51:38;;;;;;;24.90;14.87;;;0.20;99.90;;;;;;7352036;32;20248;-57
2023/12/07 01:55:40;;;;;;;21.27;13.73;;;0.10;99.90;;;;;;7352744;32;20230;-56
2023/12/07 01:59:42;;;;;;;20.20;14.43;;;0.10;99.90;;;;;;7344929;32;20126;-56
2023/12/07 02:03:44;;;;;;;27.05;14.98;;;0.10;99.90;;;;;;7346035;32;20533;-56
2023/12/07 02:07:45;;;;;;;24.40;14.63;;;0.20;99.90;;;;;;7348942;32;20509;-57
2023/12/07 02:11:47;;;;;;;22.33;14.63;;;0.20;99.90;;;;;;7353847;32;20536;-57
2023/12/07 02:15:50;;;;;;;24.50;14.30;;;0.30;99.90;;;;;;7347843;32;20486;-57
2023/12/07 02:20:08;;;;;;;26.70;15.93;;;0.30;99.90;;;;;;7351584;32;20144;-57
2023/12/07 02:24:17;;;;;;;34.55;16.58;;;0.30;99.90;;;;;;7346013;32;20377;-57
2023/12/07 02:28:19;;;;;;;32.42;16.52;;;0.40;99.90;;;;;;7349205;32;20452;-56
2023/12/07 02:32:20;;;;;;;34.10;16.85;;;0.50;99.90;;;;;;7348003;32;20615;-56
2023/12/07 02:36:26;;;;;;;38.50;19.52;;;0.60;99.90;;;;;;7343939;32;20376;-56
2023/12/07 02:40:29;;;;;;;33.05;19.45;;;0.80;99.90;;;;;;7346176;32;20253;-57
2023/12/07 02:44:31;;;;;;;33.17;18.85;;;0.90;99.90;;;;;;7344695;32;20520;-57
2023/12/07 02:48:33;;;;;;;32.88;18.87;;;1.00;99.90;;;;;;7348646;32;20099;-56
2023/12/07 02:52:35;;;;;;;34.70;19.83;;;1.10;99.90;;;;;;7346154;32;20106;-56
2023/12/07 02:56:37;;;;;;;33.00;19.50;;;1.20;99.90;;;;;;7341606;32;20606;-58
2023/12/07 03:00:39;;;;;;;34.78;18.77;;;1.20;99.90;;;;;;7341710;32;20464;-57
2023/12/07 03:04:40;;;;;;;30.83;18.17;;;1.30;99.90;;;;;;7350672;32;20488;-57
2023/12/07 03:08:42;;;;;;;37.25;19.37;;;1.30;99.90;;;;;;7343399;32;20111;-56
2023/12/07 03:12:44;;;;;;;32.35;18.48;;;1.40;99.90;;;;;;7345556;32;20107;-58
2023/12/07 03:16:45;;;;;;;32.05;17.87;;;1.50;99.90;;;;;;7337176;32;20131;-57
2023/12/07 03:20:47;;;;;;;34.53;19.90;;;1.40;99.90;;;;;;7347095;32;20704;-58
2023/12/07 03:24:52;;;;;;;34.03;19.23;;;1.50;99.90;;;;;;7345955;32;20765;-56
2023/12/07 03:28:53;;;;;;;40.17;20.55;;;1.50;99.90;;;;;;7347319;32;20735;-56
2023/12/07 03:32:55;;;;;;;33.92;18.83;;;1.50;99.90;;;;;;7342106;32;20164;-58
2023/12/07 03:36:57;;;;;;;32.65;18.95;;;1.60;99.90;;;;;;7349659;32;20104;-58
2023/12/07 03:40:59;;;;;;;29.52;17.67;;;1.70;99.90;;;;;;7348428;32;20595;-57
2023/12/07 03:45:00;;;;;;;33.22;18.20;;;1.60;99.90;;;;;;7344794;32;20510;-56
2023/12/07 03:49:02;;;;;;;32.50;18.75;;;1.70;99.90;;;;;;7345410;32;20103;-56
2023/12/07 03:53:04;;;;;;;30.88;17.85;;;1.70;99.90;;;;;;7339275;32;20534;-56
2023/12/07 03:57:06;;;;;;;35.28;20.25;;;1.80;99.90;;;;;;7344031;32;20186;-58
2023/12/07 04:01:08;;;;;;;31.98;17.48;;;1.80;99.90;;;;;;7345885;32;20118;-57
2023/12/07 04:05:10;;;;;;;30.62;17.45;;;1.90;99.90;;;;;;7347918;32;20186;-56
2023/12/07 04:09:11;;;;;;;29.90;17.95;;;1.90;99.90;;;;;;7343078;32;20126;-56
2023/12/07 04:13:13;;;;;;;29.85;17.37;;;1.80;99.90;;;;;;7343598;32;20175;-56
2023/12/07 04:17:15;;;;;;;29.95;17.25;;;1.80;99.90;;;;;;7347678;32;20129;-57
2023/12/07 04:21:17;;;;;;;30.67;17.52;;;1.90;99.90;;;;;;7351414;32;20237;-57
2023/12/07 04:25:18;;;;;;;31.40;17.20;;;2.00;99.90;;;;;;7352506;32;20223;-56
2023/12/07 04:29:20;;;;;;;29.48;17.37;;;2.00;99.90;;;;;;7349984;32;20125;-57
2023/12/07 04:33:22;;;;;;;28.55;17.27;;;2.00;99.90;;;;;;7351744;32;20220;-57
2023/12/07 04:37:24;;;;;;;34.25;19.52;;;2.00;99.90;;;;;;7350159;32;20107;-56
2023/12/07 04:41:26;;;;;;;33.08;18.00;;;2.10;99.90;;;;;;7352817;32;20497;-57
2023/12/07 04:45:27;;;;;;;33.83;18.65;;;2.10;99.90;;;;;;7345757;32;20619;-57
2023/12/07 04:49:29;;;;;;;31.08;18.25;;;2.10;99.90;;;;;;7350499;32;20206;-58
2023/12/07 04:53:31;;;;;;;32.55;18.85;;;2.10;99.90;;;;;;7354220;32;20176;-57
2023/12/07 04:57:36;;;;;;;27.62;17.10;;;2.30;99.90;;;;;;7349919;32;20119;-55
2023/12/07 05:01:38;;;;;;;31.60;17.77;;;2.20;99.90;;;;;;7355949;32;20495;-57
2023/12/07 05:05:40;;;;;;;29.52;16.77;;;2.30;99.90;;;;;;7357213;32;20198;-56
2023/12/07 05:09:42;;;;;;;30.27;16.75;;;2.20;99.90;;;;;;7354125;32;20225;-56
2023/12/07 05:13:44;;;;;;;27.27;16.87;;;2.30;99.90;;;;;;7357022;32;20294;-57
2023/12/07 05:17:45;;;;;;;27.50;15.75;;;2.30;99.90;;;;;;7349528;32;20174;-58
2023/12/07 05:21:47;;;;;;;29.25;16.15;;;2.30;99.90;;;;;;7350282;32;20091;-57
2023/12/07 05:25:49;;;;;;;31.25;17.25;;;2.30;99.90;;;;;;7348208;32;20173;-56
2023/12/07 05:29:51;;;;;;;24.60;15.13;;;2.30;99.90;;;;;;7347105;32;20274;-56
2023/12/07 05:33:52;;;;;;;26.67;16.90;;;2.30;99.90;;;;;;7356161;32;20520;-56
2023/12/07 05:37:54;;;;;;;29.27;16.55;;;2.30;99.90;;;;;;7348643;32;20122;-57
2023/12/07 05:41:57;;;;;;;29.27;16.00;;;2.40;99.90;;;;;;7351829;32;20251;-58
2023/12/07 05:45:58;;;;;;;27.52;16.55;;;2.40;99.90;;;;;;7354674;32;20117;-56
2023/12/07 05:50:03;;;;;;;27.58;16.17;;;2.50;99.90;;;;;;7350300;32;20159;-56
2023/12/07 05:54:05;;;;;;;29.85;17.00;;;2.50;99.90;;;;;;7345065;32;20523;-56
2023/12/07 05:58:07;;;;;;;33.72;18.27;;;2.40;99.90;;;;;;7350141;32;20107;-56
2023/12/07 06:02:09;;;;;;;29.77;17.92;;;2.50;99.90;;;;;;7352766;32;20099;-57
2023/12/07 06:06:11;;;;;;;34.13;19.05;;;2.60;99.90;;;;;;7344055;32;20473;-57
2023/12/07 06:10:13;;;;;;;30.55;18.30;;;2.60;99.90;;;;;;7349089;32;20295;-57
2023/12/07 06:14:15;;;;;;;36.28;19.45;;;2.60;99.90;;;;;;7348134;32;20218;-56
2023/12/07 06:18:16;;;;;;;32.38;19.95;;;2.70;99.90;;;;;;7346403;32;20103;-57
2023/12/07 06:22:19;;;;;;;39.30;21.23;;;2.60;99.90;;;;;;7350101;32;20517;-56
2023/12/07 06:26:22;;;;;;;36.13;19.52;;;2.60;99.90;;;;;;7349568;32;20146;-56
2023/12/07 06:30:24;;;;;;;35.78;19.42;;;2.50;99.90;;;;;;7354883;32;20133;-56
2023/12/07 06:34:27;;;;;;;39.67;23.08;;;2.50;99.90;;;;;;7351687;32;20148;-57
2023/12/07 06:38:30;;;;;;;37.45;19.67;;;2.40;99.90;;;;;;7346718;32;20435;-57
2023/12/07 06:42:32;;;;;;;31.48;18.50;;;2.30;99.90;;;;;;7347323;32;20183;-57
2023/12/07 06:46:33;;;;;;;29.33;17.85;;;2.10;99.90;;;;;;7352600;32;20107;-57
2023/12/07 06:50:35;;;;;;;29.92;18.25;;;2.00;99.90;;;;;;7343478;32;20616;-59
2023/12/07 06:54:38;;;;;;;30.67;17.42;;;1.90;99.90;;;;;;7353412;32;20205;-56
2023/12/07 06:58:40;;;;;;;30.05;17.52;;;1.80;99.90;;;;;;7350908;32;20107;-55
2023/12/07 07:02:41;;;;;;;27.95;16.58;;;1.70;99.90;;;;;;7348326;32;20122;-55
2023/12/07 07:06:44;;;;;;;27.62;16.55;;;1.60;99.90;;;;;;7336233;32;20140;-56
2023/12/07 07:10:46;;;;;;;32.42;17.45;;;1.50;99.90;;;;;;7345810;32;20119;-56
2023/12/07 07:14:48;;;;;;;26.85;15.90;;;1.60;99.90;;;;;;7341468;32;20114;-55
2023/12/07 07:18:50;;;;;;;28.65;16.15;;;1.50;99.90;;;;;;7350931;32;20722;-55
2023/12/07 07:22:52;;;;;;;27.70;16.45;;;1.50;99.90;;;;;;7341263;32;20122;-55
2023/12/07 07:26:54;;;;;;;26.35;16.12;;;1.50;99.90;;;;;;7345474;32;20737;-56
2023/12/07 07:30:56;;;;;;;27.67;16.25;;;1.40;99.90;;;;;;7344978;32;20187;-56
2023/12/07 07:35:01;;;;;;;24.05;15.02;;;1.40;99.90;;;;;;7337250;32;20267;-56
2023/12/07 07:39:04;;;;;;;27.23;16.30;;;1.60;99.90;;;;;;7344419;32;20103;-57
2023/12/07 07:43:06;;;;;;;29.05;15.73;;;1.50;99.90;;;;;;7345034;32;20118;-57
2023/12/07 07:47:08;;;;;;;27.25;15.65;;;1.60;99.90;;;;;;7341723;32;20088;-57
2023/12/07 07:51:10;;;;;;;28.45;14.93;;;1.60;99.90;;;;;;7332267;32;20179;-57
2023/12/07 07:55:12;;;;;;;24.48;14.85;;;1.60;99.90;;;;;;7342880;32;20126;-58
2023/12/07 07:59:14;;;;;;;23.35;14.32;;;1.70;99.90;;;;;;7346037;32;20114;-57
2023/12/07 08:03:16;;;;;;;23.00;13.60;;;1.70;99.90;;;;;;7342075;32;20174;-58
2023/12/07 08:07:18;;;;;;;26.42;14.80;;;1.80;99.90;;;;;;7349017;32;20128;-58
2023/12/07 08:11:20;;;;;;;27.25;14.20;;;1.80;99.90;;;;;;7344726;32;20702;-57
2023/12/07 08:15:22;;;;;;;26.23;14.77;;;1.80;99.90;;;;;;7340617;32;20130;-58
2023/12/07 08:19:23;;;;;;;22.58;13.95;;;1.90;99.90;;;;;;7337591;32;20194;-57
2023/12/07 08:23:25;;;;;;;20.62;13.60;;;1.80;99.90;;;;;;7345154;32;20232;-57
2023/12/07 08:27:27;;;;;;;21.65;13.95;;;1.90;99.90;;;;;;7347340;32;20207;-58
2023/12/07 08:31:29;;;;;;;22.20;13.88;;;1.90;99.90;;;;;;7347996;32;20121;-59
2023/12/07 08:35:31;;;;;;;21.27;13.35;;;1.90;99.90;;;;;;7345751;32;20195;-57
2023/12/07 08:39:32;;;;;;;21.98;13.35;;;1.90;99.90;;;;;;7344487;32;20152;-57
2023/12/07 08:43:34;;;;;;;21.92;13.15;;;1.90;99.90;;;;;;7343170;32;20549;-58
2023/12/07 08:47:36;;;;;;;22.13;13.40;;;1.90;99.90;;;;;;7342992;32;20788;-57
2023/12/07 08:51:38;;;;;;;23.45;12.98;;;2.00;99.90;;;;;;7342855;32;20207;-56
2023/12/07 08:55:49;;;;;;;22.55;12.85;;;2.00;99.90;;;;;;7339177;32;20099;-57
2023/12/07 08:59:51;;;;;;;19.17;11.65;;;2.10;99.90;;;;;;7340669;32;20279;-56
2023/12/07 09:03:52;;;;;;;22.33;13.07;;;2.20;99.90;;;;;;7347900;32;20224;-56
2023/12/07 09:07:54;;;;;;;22.15;12.68;;;2.20;99.90;;;;;;7340953;32;20091;-56
2023/12/07 09:11:56;;;;;;;23.10;12.77;;;2.10;99.90;;;;;;7344501;32;20716;-56
2023/12/07 09:15:58;;;;;;;20.00;13.00;;;2.10;99.90;;;;;;7346587;32;20520;-57
2023/12/07 09:20:01;;;;;;;26.23;13.20;;;2.20;99.90;;;;;;7344770;32;20126;-56
2023/12/07 09:24:03;;;;;;;21.73;12.70;;;2.30;99.90;;;;;;7345891;32;20102;-57
2023/12/07 09:28:04;;;;;;;20.58;12.98;;;2.30;99.90;;;;;;7341484;32;20318;-56
2023/12/07 09:32:07;;;;;;;18.95;12.13;;;2.30;99.90;;;;;;7344772;32;20920;-55
2023/12/07 09:36:11;;;;;;;19.83;12.75;;;2.30;99.90;;;;;;7342201;32;20236;-58
2023/12/07 09:40:20;;;;;;;20.55;12.45;;;2.30;99.90;;;;;;7349725;32;20829;-58
2023/12/07 09:44:23;;;;;;;18.55;12.13;;;2.40;99.90;;;;;;7348027;32;20554;-57
2023/12/07 09:48:25;;;;;;;19.20;12.07;;;2.40;99.90;;;;;;7351156;32;20494;-57
2023/12/07 09:52:27;;;;;;;19.48;12.25;;;2.50;99.90;;;;;;7347070;32;20133;-58
2023/12/07 09:56:29;;;;;;;17.12;11.27;;;2.50;99.90;;;;;;7341940;32;20521;-58
2023/12/07 10:00:30;;;;;;;19.98;11.45;;;2.50;99.90;;;;;;7348579;32;20592;-57
2023/12/07 10:04:32;;;;;;;18.25;12.05;;;2.50;99.90;;;;;;7344003;32;20237;-58
2023/12/07 10:08:37;;;;;;;21.00;11.90;;;2.60;99.90;;;;;;7350142;32;20133;-57
2023/12/07 10:12:59;;;;;;;19.37;12.18;;;2.60;99.90;;;;;;7343784;32;20221;-57
2023/12/07 10:17:01;;;;;;;19.65;12.15;;;2.60;99.90;;;;;;7339977;32;20281;-57
2023/12/07 10:21:03;;;;;;;18.87;12.23;;;2.60;99.90;;;;;;7348310;32;20254;-59
2023/12/07 10:25:05;;;;;;;19.50;11.85;;;2.60;99.90;;;;;;7350854;32;20194;-59
2023/12/07 10:29:07;;;;;;;24.27;14.45;;;2.70;99.90;;;;;;7337624;32;20148;-57
2023/12/07 10:33:15;;;;;;;19.02;11.85;;;2.80;99.90;;;;;;7342309;32;20095;-58
2023/12/07 10:37:17;;;;;;;18.10;12.15;;;2.80;99.90;;;;;;7347297;32;20123;-58
2023/12/07 10:41:24;;;;;;;23.08;11.80;;;2.90;99.90;;;;;;7345896;32;20421;-57
2023/12/07 10:45:27;;;;;;;;;;;2.90;99.90;;;;;;7345355;32;20573;-58
2023/12/07 10:49:30;;;;;;;19.37;11.43;;;3.00;99.90;;;;;;7348662;32;20080;-57
2023/12/07 10:53:45;;;;;;;18.77;11.43;;;3.10;99.90;;;;;;7346808;32;20498;-57
2023/12/07 10:57:47;;;;;;;18.20;11.45;;;3.10;99.90;;;;;;7345523;32;20578;-58
2023/12/07 11:01:49;;;;;;;16.37;10.88;;;3.10;99.90;;;;;;7350220;32;20143;-57
2023/12/07 11:05:51;;;;;;;16.48;10.90;;;3.10;99.90;;;;;;7342890;32;20301;-57
2023/12/07 11:10:34;;;;;;;17.40;11.18;;;3.10;99.90;;;;;;7343551;32;20111;-57
2023/12/07 11:14:38;;;;;;;18.40;11.12;;;3.20;99.90;;;;;;7337692;32;20237;-56
2023/12/07 11:18:39;;;;;;;17.20;11.18;;;3.20;99.90;;;;;;7344641;32;20287;-58
2023/12/07 11:22:41;;;;;;;16.27;10.77;;;3.10;99.90;;;;;;7343258;32;20216;-58
2023/12/07 11:26:44;;;;;;;16.58;10.65;;;3.10;99.90;;;;;;7343289;32;20104;-58
2023/12/07 11:30:46;;;;;;;17.85;10.32;;;3.10;99.90;;;;;;7344290;32;20562;-57
2023/12/07 11:34:48;;;;;;;18.95;11.27;;;3.10;99.90;;;;;;7346077;32;20303;-58
2023/12/07 11:39:02;;;;;;;18.27;11.70;;;3.20;99.90;;;;;;7343647;32;20166;-58
2023/12/07 11:43:05;;;;;;;17.40;10.98;;;3.20;99.90;;;;;;7339135;32;20100;-57
2023/12/07 11:47:08;;;;;;;20.50;12.10;;;3.30;99.90;;;;;;7341747;32;20261;-58
2023/12/07 11:51:11;;;;;;;17.67;10.88;;;3.30;99.90;;;;;;7343328;32;20306;-57
2023/12/07 11:55:13;;;;;;;16.10;10.60;;;3.30;99.90;;;;;;7343358;32;20119;-57
2023/12/07 11:59:16;;;;;;;16.50;9.93;;;3.30;99.90;;;;;;7340944;32;20095;-58
2023/12/07 12:03:29;;;;;;;16.70;9.60;;;3.30;99.90;;;;;;7341086;32;20208;-58
2023/12/07 12:07:31;;;;;;;17.40;10.38;;;3.40;99.90;;;;;;7336691;32;20221;-57
2023/12/07 12:11:35;;;;;;;18.40;9.68;;;3.30;99.90;;;;;;7346444;32;20407;-57
2023/12/07 12:15:39;;;;;;;16.35;10.27;;;3.40;99.90;;;;;;7343046;32;20228;-58
2023/12/07 12:19:41;;;;;;;16.98;10.02;;;3.50;99.90;;;;;;7341825;32;20645;-57
2023/12/07 12:23:44;;;;;;;12.93;9.73;;;3.60;99.90;;;;;;7343158;32;20098;-57
2023/12/07 12:27:47;;;;;;;14.07;9.73;;;3.60;99.90;;;;;;7346479;32;20178;-57
2023/12/07 12:31:48;;;;;;;13.68;9.48;;;3.60;99.90;;;;;;7346075;32;20107;-57
2023/12/07 12:36:05;;;;;;;16.33;10.13;;;3.60;99.90;;;;;;7342280;32;20109;-58
2023/12/07 12:40:07;;;;;;;13.40;9.10;;;3.60;99.90;;;;;;7347501;32;20236;-57
2023/12/07 12:44:08;;;;;;;14.87;9.05;;;3.60;99.90;;;;;;7343449;32;20527;-57
2023/12/07 12:48:18;;;;;;;15.95;9.60;;;3.60;99.90;;;;;;7349575;32;20155;-58
2023/12/07 12:52:20;;;;;;;14.50;9.20;;;3.60;99.90;;;;;;7354512;32;20130;-57
2023/12/07 12:56:23;;;;;;;13.90;8.77;;;3.70;99.90;;;;;;7349340;32;20194;-57
2023/12/07 13:00:25;;;;;;;13.02;9.07;;;3.70;99.90;;;;;;7347450;32;20186;-58
2023/12/07 13:04:27;;;;;;;15.30;8.90;;;3.70;99.90;;;;;;7348364;32;20202;-58
2023/12/07 13:08:30;;;;;;;14.32;9.40;;;3.80;99.90;;;;;;7345977;32;20100;-57
2023/12/07 13:12:35;;;;;;;16.62;8.75;;;3.80;99.90;;;;;;7355129;32;20128;-57
2023/12/07 13:16:37;;;;;;;13.18;7.72;;;3.80;99.90;;;;;;7342155;32;20148;-58
2023/12/07 13:20:39;;;;;;;13.10;8.98;;;3.80;99.90;;;;;;7342033;32;20103;-58
2023/12/07 13:24:54;;;;;;;17.23;8.57;;;3.80;99.90;;;;;;7347605;32;20104;-58
2023/12/07 13:28:56;;;;;;;15.68;8.70;;;4.00;99.90;;;;;;7352196;32;20478;-58
2023/12/07 13:32:58;;;;;;;14.98;8.63;;;4.10;99.90;;;;;;7344443;32;20171;-59
2023/12/07 13:37:04;;;;;;;12.20;7.85;;;4.20;99.90;;;;;;7349407;32;20220;-61
2023/12/07 13:41:06;;;;;;;10.35;7.18;;;4.20;99.90;;;;;;7352088;32;20107;-62
2023/12/07 13:45:08;;;;;;;13.18;8.40;;;4.30;99.90;;;;;;7347350;32;20536;-61
2023/12/07 13:49:11;;;;;;;12.63;7.50;;;4.30;99.90;;;;;;7352032;32;20107;-58
2023/12/07 13:53:26;;;;;;;11.02;6.87;;;4.40;99.90;;;;;;7345713;32;20122;-56
2023/12/07 13:57:27;;;;;;;11.27;6.85;;;4.40;99.90;;;;;;7351830;32;20122;-57
2023/12/07 14:01:31;;;;;;;15.30;7.62;;;4.50;99.90;;;;;;7352648;32;20201;-56
2023/12/07 14:05:33;;;;;;;13.00;7.40;;;4.70;99.90;;;;;;7343103;32;20119;-56
2023/12/07 14:09:36;;;;;;;13.60;7.07;;;4.80;99.90;;;;;;7345473;32;20150;-57
2023/12/07 14:13:53;;;;;;;9.30;6.15;;;4.80;99.90;;;;;;7351251;32;20140;-57
2023/12/07 14:17:55;;;;;;;9.68;6.45;;;4.70;99.90;;;;;;7347395;32;20120;-57
2023/12/07 14:21:58;;;;;;;9.35;6.40;;;4.50;99.90;;;;;;7350260;32;20473;-57
2023/12/07 14:26:00;;;;;;;12.60;7.00;;;4.40;99.90;;;;;;7351234;32;20283;-57
2023/12/07 14:30:05;;;;;;;9.63;6.20;;;4.10;99.90;;;;;;7343214;32;20099;-59
2023/12/07 14:34:07;;;;;;;11.45;6.45;;;4.20;99.90;;;;;;7347448;32;20190;-57
2023/12/07 14:38:13;;;;;;;10.30;6.32;;;4.00;99.90;;;;;;7350555;32;20182;-57
2023/12/07 14:42:15;;;;;;;12.35;7.28;;;3.90;99.90;;;;;;7348215;32;20714;-56
2023/12/07 14:46:17;;;;;;;11.50;7.07;;;3.70;99.90;;;;;;7346084;32;20298;-58
2023/12/07 14:50:19;;;;;;;10.57;7.82;;;3.60;99.90;;;;;;7345461;32;20235;-57
2023/12/07 14:54:21;;;;;;;13.32;7.15;;;3.40;99.90;;;;;;7347154;32;20372;-56
2023/12/07 14:58:30;;;;;;;10.93;7.03;;;3.40;99.90;;;;;;7345990;32;20144;-57
2023/12/07 15:02:31;;;;;;;13.62;7.55;;;3.30;99.90;;;;;;7350077;32;20137;-57
2023/12/07 15:06:33;;;;;;;13.70;6.70;;;3.30;99.90;;;;;;7345482;32;20179;-57
2023/12/07 15:10:35;;;;;;;10.85;6.87;;;3.10;99.90;;;;;;7347736;32;20123;-58
2023/12/07 15:14:37;;;;;;;13.88;7.20;;;3.20;99.90;;;;;;7341703;32;20186;-56
2023/12/07 15:18:44;;;;;;;12.32;7.07;;;3.00;99.90;;;;;;7346511;32;20599;-58
2023/12/07 15:22:47;;;;;;;14.10;7.55;;;2.90;99.90;;;;;;7342726;32;20549;-57
2023/12/07 15:26:48;;;;;;;12.48;7.00;;;2.80;99.90;;;;;;7348692;32;20236;-58
2023/12/07 15:30:50;;;;;;;11.50;6.75;;;2.70;99.90;;;;;;7342709;32;20118;-58
2023/12/07 15:34:52;;;;;;;10.13;7.18;;;2.60;99.90;;;;;;7342300;32;20590;-57
2023/12/07 15:38:56;;;;;;;14.00;6.57;;;2.60;99.90;;;;;;7347070;32;20505;-57
2023/12/07 15:42:58;;;;;;;10.48;6.90;;;2.60;99.90;;;;;;7343241;32;20157;-58
2023/12/07 15:47:00;;;;;;;8.93;6.35;;;2.50;99.90;;;;;;7345375;32;20099;-57
2023/12/07 15:51:02;;;;;;;10.82;6.85;;;2.50;99.90;;;;;;7344985;32;20282;-56
2023/12/07 15:55:04;;;;;;;11.30;6.97;;;2.50;99.90;;;;;;7346651;32;20244;-57
2023/12/07 15:59:06;;;;;;;10.95;7.32;;;2.50;99.90;;;;;;7346863;32;20099;-59
2023/12/07 16:03:08;;;;;;;14.87;7.40;;;2.40;99.90;;;;;;7346133;32;20114;-58
2023/12/07 16:07:11;;;;;;;13.32;7.25;;;2.40;99.90;;;;;;7348610;32;20127;-57
2023/12/07 16:11:13;;;;;;;13.65;7.25;;;2.40;99.90;;;;;;7351073;32;22254;-59
2023/12/07 16:15:15;;;;;;;13.23;7.22;;;2.30;99.90;;;;;;7334574;32;20201;-58
2023/12/07 16:19:17;;;;;;;10.65;6.50;;;2.40;99.90;;;;;;7349016;32;20148;-57
2023/12/07 16:23:19;;;;;;;11.93;6.55;;;2.40;99.90;;;;;;7348658;32;20209;-57
2023/12/07 16:27:20;;;;;;;11.90;6.87;;;2.40;99.90;;;;;;7349132;32;20111;-57
2023/12/07 16:31:22;;;;;;;10.60;6.37;;;2.40;99.90;;;;;;7347152;32;20151;-57
2023/12/07 16:35:24;;;;;;;10.18;5.95;;;2.40;99.90;;;;;;7349730;32;20675;-57
2023/12/07 16:39:26;;;;;;;11.32;6.05;;;2.40;99.90;;;;;;7345875;32;20111;-55
2023/12/07 16:43:28;;;;;;;11.45;5.80;;;2.40;99.90;;;;;;7346401;32;20225;-58
2023/12/07 16:47:29;;;;;;;8.63;6.12;;;2.30;99.90;;;;;;7346619;32;20217;-57
2023/12/07 16:51:31;;;;;;;9.35;5.93;;;2.30;99.90;;;;;;7345345;32;20528;-57
2023/12/07 16:55:33;;;;;;;11.32;5.57;;;2.40;99.90;;;;;;7347745;32;20139;-57
2023/12/07 16:59:35;;;;;;;8.00;5.60;;;2.40;99.90;;;;;;7344441;32;20194;-57
2023/12/07 17:03:36;;;;;;;11.15;5.12;;;2.40;99.90;;;;;;7343439;32;20199;-59
2023/12/07 17:07:39;;;;;;;9.68;4.90;;;2.50;99.90;;;;;;7349918;32;20137;-57
2023/12/07 17:11:41;;;;;;;10.25;5.87;;;2.50;99.90;;;;;;7345194;32;20656;-57
2023/12/07 17:15:43;;;;;;;8.18;4.95;;;2.60;99.90;;;;;;7346390;32;20121;-56
2023/12/07 17:19:45;;;;;;;9.45;4.87;;;2.60;99.90;;;;;;7349395;32;20215;-56
2023/12/07 17:23:52;;;;;;;6.85;4.65;;;2.60;99.90;;;;;;7349316;32;20284;-57
2023/12/07 17:27:54;;;;;;;9.25;4.75;;;2.50;99.90;;;;;;7352015;32;20191;-56
2023/12/07 17:31:59;;;;;;;7.62;5.07;;;2.50;99.90;;;;;;7346606;32;20149;-56
2023/12/07 17:36:01;;;;;;;10.13;4.53;;;2.50;99.90;;;;;;7349802;32;22054;-57
2023/12/07 17:40:04;;;;;;;8.88;4.82;;;2.50;99.90;;;;;;7350801;32;20511;-58
2023/12/07 17:44:06;;;;;;;10.52;5.43;;;2.60;99.90;;;;;;7348542;32;20099;-56
2023/12/07 17:48:11;;;;;;;10.40;5.93;;;2.50;99.90;;;;;;7348575;32;20088;-57
2023/12/07 17:52:13;;;;;;;9.32;5.05;;;2.60;99.90;;;;;;7347437;32;20096;-57
2023/12/07 17:56:15;;;;;;;9.00;5.30;;;2.60;99.90;;;;;;7344435;32;20230;-57
2023/12/07 18:00:17;;;;;;;9.85;4.97;;;2.60;99.90;;;;;;7345980;32;20181;-58
2023/12/07 18:04:18;;;;;;;8.23;5.05;;;2.50;99.90;;;;;;7348250;32;20550;-57
2023/12/07 18:08:20;;;;;;;10.02;5.68;;;2.50;99.90;;;;;;7351404;32;20178;-57
2023/12/07 18:12:22;;;;;;;10.90;5.53;;;2.60;99.90;;;;;;7343091;32;20780;-56
2023/12/07 18:16:24;;;;;;;8.43;5.40;;;2.50;99.90;;;;;;7348320;32;20180;-57
2023/12/07 18:20:26;;;;;;;9.88;5.22;;;2.50;99.90;;;;;;7337451;32;20198;-58
2023/12/07 18:24:27;;;;;;;11.10;5.15;;;2.40;99.90;;;;;;7346045;32;20639;-58
2023/12/07 18:28:29;;;;;;;8.52;5.47;;;2.50;99.90;;;;;;7346401;32;20517;-58
2023/12/07 18:32:31;;;;;;;8.40;4.80;;;2.40;99.90;;;;;;7348123;32;20103;-57
2023/12/07 18:36:33;;;;;;;8.55;5.03;;;2.40;99.90;;;;;;7344280;32;20143;-57
2023/12/07 18:40:35;;;;;;;7.35;5.20;;;2.40;99.90;;;;;;7350902;32;20183;-58
2023/12/07 18:44:37;;;;;;;9.18;4.68;;;2.30;99.90;;;;;;7346016;32;20894;-59
2023/12/07 18:48:39;;;;;;;9.32;4.95;;;2.40;99.90;;;;;;7341702;32;20099;-57
2023/12/07 18:52:41;;;;;;;8.18;4.50;;;2.40;99.90;;;;;;7346170;32;20179;-57
2023/12/07 18:56:45;;;;;;;6.68;4.43;;;2.30;99.90;;;;;;7350225;32;20349;-57
2023/12/07 19:00:48;;;;;;;8.52;5.05;;;2.30;99.90;;;;;;7340320;32;20289;-58
2023/12/07 19:04:50;;;;;;;9.55;4.75;;;2.40;99.90;;;;;;7344046;32;20109;-63
2023/12/07 19:08:51;;;;;;;9.63;4.65;;;2.50;99.90;;;;;;7340803;32;20267;-64
2023/12/07 19:12:55;;;;;;;9.18;4.85;;;2.60;99.90;;;;;;7337807;32;20123;-56
2023/12/07 19:16:57;;;;;;;10.25;5.62;;;2.50;99.90;;;;;;7343452;32;20139;-57
2023/12/07 19:20:59;;;;;;;7.43;4.30;;;2.50;99.90;;;;;;7346030;32;20623;-56
2023/12/07 19:25:01;;;;;;;8.95;5.30;;;2.50;99.90;;;;;;7345816;32;20261;-56
2023/12/07 19:29:02;;;;;;;8.68;5.62;;;2.40;99.90;;;;;;7343544;32;20179;-55
2023/12/07 19:33:04;;;;;;;8.73;5.07;;;2.40;99.90;;;;;;7346450;32;20459;-55
2023/12/07 19:37:06;;;;;;;9.80;5.80;;;2.50;99.90;;;;;;7344894;32;20899;-55
2023/12/07 19:41:08;;;;;;;10.18;6.00;;;2.50;99.90;;;;;;7348371;32;20099;-55
2023/12/07 19:45:10;;;;;;;11.80;6.50;;;2.40;99.90;;;;;;7340680;32;20099;-54
2023/12/07 19:49:12;;;;;;;12.25;6.28;;;2.40;99.90;;;;;;7341382;32;20194;-57
2023/12/07 19:53:13;;;;;;;12.15;7.05;;;2.40;99.90;;;;;;7347682;32;20158;-56
2023/12/07 19:57:15;;;;;;;11.65;7.43;;;2.40;99.90;;;;;;7344059;32;20517;-56
2023/12/07 20:01:17;;;;;;;12.35;7.00;;;2.30;99.90;;;;;;7342279;32;20112;-56
2023/12/07 20:05:20;;;;;;;13.48;6.97;;;2.30;99.90;;;;;;7343305;32;20104;-57
2023/12/07 20:09:21;;;;;;;13.18;7.22;;;2.40;99.90;;;;;;7342013;32;20249;-55
2023/12/07 20:13:23;;;;;;;16.23;8.75;;;2.30;99.90;;;;;;7347449;32;20564;-55
2023/12/07 20:17:25;;;;;;;13.20;7.90;;;2.30;99.90;;;;;;7347291;32;20470;-55
2023/12/07 20:21:28;;;;;;;13.57;7.70;;;2.30;99.90;;;;;;7341108;32;20283;-53
2023/12/07 20:25:29;;;;;;;12.20;7.80;;;2.30;99.90;;;;;;7347553;32;20094;-55
2023/12/07 20:29:34;;;;;;;15.35;8.70;;;2.30;99.90;;;;;;7344191;32;20186;-57
2023/12/07 20:33:36;;;;;;;13.48;7.90;;;2.30;99.90;;;;;;7346027;32;20191;-55
2023/12/07 20:37:38;;;;;;;13.40;7.85;;;2.30;99.90;;;;;;7345276;32;20159;-57
2023/12/07 20:41:40;;;;;;;13.88;8.75;;;2.30;99.90;;;;;;7339050;32;20119;-56
2023/12/07 20:45:41;;;;;;;14.60;8.20;;;2.30;99.90;;;;;;7344812;32;20174;-59
2023/12/07 20:49:43;;;;;;;14.63;7.82;;;2.30;99.90;;;;;;7342430;32;20257;-56
2023/12/07 20:53:45;;;;;;;13.77;8.32;;;2.30;99.90;;;;;;7343025;32;20135;-59
2023/12/07 20:57:51;;;;;;;12.65;7.85;;;2.40;99.90;;;;;;7346857;32;20131;-57